PWSweather.com
Personal Weather Stations
Station Observations
HANATON
HannatonIL 1796000

HannatonIL 1796000

Lat: 32.781682, Lon: 35.244355

Elevation: 558

Station Type: Davis Vantage VUE

http://hanaton.co.il/

Latest ConditionsUpdated 7:15:02 AM GMT+02:02 Thursday, Jun 27, 2019
Currently Today's Max Today's Min Today's Average
Temperature 79.2°F26.2°C 79.2°F26.2°C 69.4°F20.8°C 72.4°F22.4°C
Dew Point 71.3°F21.8°C 71.6°F22.0°C 67.3°F19.6°C 69.6°F20.9°C
Winds Calm Calm Calm -Calm - - Calm Calm
Wind Gusts 3.0 mph4.8 kmh 4.0 mph6.4 kmh - -
Humidity 77% 94% 77% 91%
Pressure 29.33 in993.2 mb 29.33 in993.2 mb 29.31 in992.6 mb -
Precipitation - 0.01 in0.3 mm - -
Hour Temp Dew Point Humidity Winds Wind Gusts Pressure Precip Precip Rate Daily Precip Total
07:15 AM 79.2°F26.2°C 71.3°F21.8°C 77% Calm Calm 3.0 mph4.8 kmh 29.33 in993.2 mb 0.00 in0.0 mm 0.00 in0.0 mm 0.01 in0.3 mm
07:00 AM 78.3°F25.7°C 70.5°F21.4°C 77% Calm Calm 2.0 mph3.2 kmh 29.33 in993.2 mb 0.00 in0.0 mm 0.00 in0.0 mm 0.01 in0.3 mm
06:45 AM 77.2°F25.1°C 71.3°F21.8°C 82% Calm Calm 3.0 mph4.8 kmh 29.33 in993.2 mb 0.00 in0.0 mm 0.00 in0.0 mm 0.01 in0.3 mm
06:30 AM 76.1°F24.5°C 71.6°F22.0°C 86% Calm Calm 2.0 mph3.2 kmh 29.33 in993.2 mb 0.00 in0.0 mm 0.00 in0.0 mm 0.01 in0.3 mm
06:15 AM 74.5°F23.6°C 71.0°F21.7°C 89% Calm Calm 1.0 mph1.6 kmh 29.32 in992.9 mb 0.00 in0.0 mm 0.00 in0.0 mm 0.01 in0.3 mm
06:00 AM 73.0°F22.8°C 70.3°F21.3°C 91% Calm Calm 2.0 mph3.2 kmh 29.32 in992.9 mb 0.00 in0.0 mm 0.00 in0.0 mm 0.01 in0.3 mm
05:45 AM 72.1°F22.3°C 69.7°F20.9°C 92% Calm Calm 4.0 mph6.4 kmh 29.32 in992.9 mb 0.00 in0.0 mm 0.00 in0.0 mm 0.01 in0.3 mm
05:30 AM 71.1°F21.7°C 69.2°F20.7°C 94% Calm Calm 2.0 mph3.2 kmh 29.32 in992.9 mb 0.00 in0.0 mm 0.00 in0.0 mm 0.01 in0.3 mm
05:15 AM 70.2°F21.2°C 68.4°F20.2°C 94% Calm Calm 1.0 mph1.6 kmh 29.32 in992.9 mb 0.01 in0.3 mm 0.00 in0.0 mm 0.01 in0.3 mm
05:00 AM 69.6°F20.9°C 67.8°F19.9°C 94% Calm Calm -- 29.32 in992.9 mb 0.01 in0.3 mm 0.00 in0.0 mm 0.01 in0.3 mm
04:45 AM 69.6°F20.9°C 67.8°F19.9°C 94% Calm Calm 1.0 mph1.6 kmh 29.32 in992.9 mb 0.01 in0.3 mm 0.00 in0.0 mm 0.01 in0.3 mm
04:30 AM 69.4°F20.8°C 67.3°F19.6°C 93% Calm Calm 1.0 mph1.6 kmh 29.32 in992.9 mb 0.01 in0.3 mm 0.04 in1.0 mm 0.01 in0.3 mm
04:15 AM 69.4°F20.8°C 67.3°F19.6°C 93% Calm Calm -- 29.31 in992.6 mb 0.00 in0.0 mm 0.00 in0.0 mm 0.00 in0.0 mm
04:00 AM 69.4°F20.8°C 67.3°F19.6°C 93% Calm Calm -- 29.31 in992.6 mb 0.00 in0.0 mm 0.00 in0.0 mm 0.00 in0.0 mm
03:45 AM 69.6°F20.9°C 67.5°F19.7°C 93% Calm Calm 1.0 mph1.6 kmh 29.31 in992.6 mb 0.00 in0.0 mm 0.00 in0.0 mm 0.00 in0.0 mm
03:30 AM 70.0°F21.1°C 67.9°F19.9°C 93% Calm Calm -- 29.31 in992.6 mb 0.00 in0.0 mm 0.00 in0.0 mm 0.00 in0.0 mm
03:15 AM 70.2°F21.2°C 68.0°F20.0°C 93% Calm Calm -- 29.31 in992.6 mb 0.00 in0.0 mm 0.00 in0.0 mm 0.00 in0.0 mm
03:00 AM 70.3°F21.3°C 68.2°F20.1°C 93% Calm Calm 1.0 mph1.6 kmh 29.31 in992.6 mb 0.00 in0.0 mm 0.00 in0.0 mm 0.00 in0.0 mm
02:45 AM 70.9°F21.6°C 68.8°F20.4°C 93% Calm Calm -- 29.31 in992.6 mb 0.00 in0.0 mm 0.00 in0.0 mm 0.00 in0.0 mm
02:30 AM 71.2°F21.8°C 69.1°F20.6°C 93% Calm Calm 1.0 mph1.6 kmh 29.31 in992.6 mb 0.00 in0.0 mm 0.00 in0.0 mm 0.00 in0.0 mm
02:15 AM 71.2°F21.8°C 69.1°F20.6°C 93% Calm Calm -- 29.31 in992.6 mb 0.00 in0.0 mm 0.00 in0.0 mm 0.00 in0.0 mm
02:00 AM 71.6°F22.0°C 69.5°F20.8°C 93% Calm Calm -- 29.31 in992.6 mb 0.00 in0.0 mm 0.00 in0.0 mm 0.00 in0.0 mm
01:45 AM 72.3°F22.4°C 69.9°F21.1°C 92% Calm Calm -- 29.31 in992.6 mb 0.00 in0.0 mm 0.00 in0.0 mm 0.00 in0.0 mm
01:30 AM 73.0°F22.8°C 70.9°F21.6°C 93% Calm Calm -- 29.32 in992.9 mb 0.00 in0.0 mm 0.00 in0.0 mm 0.00 in0.0 mm
01:15 AM 73.4°F23.0°C 71.3°F21.8°C 93% Calm Calm 1.0 mph1.6 kmh 29.32 in992.9 mb 0.00 in0.0 mm 0.00 in0.0 mm 0.00 in0.0 mm
01:00 AM 73.6°F23.1°C 71.1°F21.7°C 92% Calm Calm -- 29.32 in992.9 mb 0.00 in0.0 mm 0.00 in0.0 mm 0.00 in0.0 mm
12:45 AM 73.8°F23.2°C 71.3°F21.8°C 92% Calm Calm -- 29.32 in992.9 mb 0.00 in0.0 mm 0.00 in0.0 mm 0.00 in0.0 mm
12:30 AM 73.9°F23.3°C 71.5°F21.9°C 92% Calm Calm 1.0 mph1.6 kmh 29.32 in992.9 mb 0.00 in0.0 mm 0.00 in0.0 mm 0.00 in0.0 mm
12:15 AM 73.9°F23.3°C 71.5°F21.9°C 92% Calm Calm 1.0 mph1.6 kmh 29.32 in992.9 mb 0.00 in0.0 mm 0.00 in0.0 mm 0.00 in0.0 mm
12:00 AM 74.1°F23.4°C 71.3°F21.8°C 91% Calm Calm 1.0 mph1.6 kmh 29.32 in992.9 mb 0.00 in0.0 mm 0.00 in0.0 mm 0.00 in0.0 mm